To NAV CANADA Home Page Login to a new session Search on AWWS site Feedback and Comments Disclaimer Vers la page française équivalente Tips FAQ What's new on the site To the Forecasts and Observations / NOTAM section To "File a Flight Plan" website Publications and other links Update of the User's profile FIC Telephone Numbers My Weather Data Folder Route Weather Data Regional Weather Data Local Weather Data To the Forecasts and Observations / NOTAM section
Request Generated 07/07/2015 at 02:41:52 UTC . Weather information available at that time is displayed.

METAR/TAF

RED DEER/RED DEER REGIONAL/AB    

METAR CYQF 070200Z 22007KT 180V300 15SM VCSH SCT050TCU BKN090 OVC250
19/09 A3005 RMK TCU4AC3CI1 SLP181 DENSITY ALT 4000FT=
METAR CYQF 070100Z 23003KT 15SM SCT050CB BKN110 OVC250 22/11 A3004
RMK CB4AC3CI1 LTGCG W SLP178 DENSITY ALT 4200FT=
METAR CYQF 070000Z 18008KT 140V240 15SM FEW056 BKN160 BKN250 23/08
A3003 RMK CU1AC5CI1 SLP178 DENSITY ALT 4400FT=

TAF AMD CYQF 070018Z 0700/0712 VRB03KT P6SM VCSH BKN120 PROB30
0702/0705 VRB15G25KT 6SM -TSRA BKN080CB
FM070800 27006KT P6SM SKC
FM071000 33012G25KT P6SM FEW140
RMK NXT FCST BY 070600Z=
Your time UTC time
Weather data provided by Environment Canada and NAV CANADA